sensor_id;sensor_type;location;lat;lon;timestamp;P1;durP1;ratioP1;P2;durP2;ratioP2
75584;SDS011;64162;53.508;10.476;2024-03-08T00:01:32;18.98;;;7.53;;
75584;SDS011;64162;53.508;10.476;2024-03-08T00:03:58;18.52;;;7.05;;
75584;SDS011;64162;53.508;10.476;2024-03-08T00:06:25;20.10;;;7.60;;
75584;SDS011;64162;53.508;10.476;2024-03-08T00:08:51;17.63;;;7.43;;
75584;SDS011;64162;53.508;10.476;2024-03-08T00:11:18;14.80;;;6.75;;
75584;SDS011;64162;53.508;10.476;2024-03-08T00:13:44;14.43;;;7.13;;
75584;SDS011;64162;53.508;10.476;2024-03-08T00:16:11;14.68;;;6.88;;
75584;SDS011;64162;53.508;10.476;2024-03-08T00:18:38;15.18;;;7.57;;
75584;SDS011;64162;53.508;10.476;2024-03-08T00:21:05;13.75;;;6.60;;
75584;SDS011;64162;53.508;10.476;2024-03-08T00:23:31;14.98;;;7.40;;
75584;SDS011;64162;53.508;10.476;2024-03-08T00:25:59;17.85;;;8.20;;
75584;SDS011;64162;53.508;10.476;2024-03-08T00:30:53;17.05;;;7.57;;
75584;SDS011;64162;53.508;10.476;2024-03-08T00:33:20;14.38;;;7.43;;
75584;SDS011;64162;53.508;10.476;2024-03-08T00:35:47;15.18;;;6.63;;
75584;SDS011;64162;53.508;10.476;2024-03-08T00:38:14;15.50;;;7.18;;
75584;SDS011;64162;53.508;10.476;2024-03-08T00:40:40;18.63;;;6.28;;
75584;SDS011;64162;53.508;10.476;2024-03-08T00:43:07;16.63;;;7.28;;
75584;SDS011;64162;53.508;10.476;2024-03-08T00:45:33;16.08;;;6.80;;
75584;SDS011;64162;53.508;10.476;2024-03-08T00:48:00;14.93;;;6.90;;
75584;SDS011;64162;53.508;10.476;2024-03-08T00:50:27;14.55;;;6.25;;
75584;SDS011;64162;53.508;10.476;2024-03-08T00:52:53;15.23;;;6.63;;
75584;SDS011;64162;53.508;10.476;2024-03-08T00:55:20;16.63;;;7.63;;
75584;SDS011;64162;53.508;10.476;2024-03-08T00:57:47;13.88;;;7.22;;
75584;SDS011;64162;53.508;10.476;2024-03-08T01:00:13;16.25;;;6.90;;
75584;SDS011;64162;53.508;10.476;2024-03-08T01:05:07;15.40;;;5.38;;
75584;SDS011;64162;53.508;10.476;2024-03-08T01:07:34;15.63;;;7.47;;
75584;SDS011;64162;53.508;10.476;2024-03-08T01:10:02;17.23;;;7.63;;
75584;SDS011;64162;53.508;10.476;2024-03-08T01:12:29;14.73;;;6.60;;
75584;SDS011;64162;53.508;10.476;2024-03-08T01:14:56;13.13;;;5.90;;
75584;SDS011;64162;53.508;10.476;2024-03-08T01:17:24;16.63;;;7.95;;
75584;SDS011;64162;53.508;10.476;2024-03-08T01:19:51;16.27;;;6.90;;
75584;SDS011;64162;53.508;10.476;2024-03-08T01:22:17;15.32;;;6.65;;
75584;SDS011;64162;53.508;10.476;2024-03-08T01:24:44;15.80;;;7.32;;
75584;SDS011;64162;53.508;10.476;2024-03-08T01:27:10;14.38;;;6.82;;
75584;SDS011;64162;53.508;10.476;2024-03-08T01:29:38;16.25;;;7.28;;
75584;SDS011;64162;53.508;10.476;2024-03-08T01:32:05;13.98;;;6.93;;
75584;SDS011;64162;53.508;10.476;2024-03-08T01:34:32;13.93;;;6.93;;
75584;SDS011;64162;53.508;10.476;2024-03-08T01:39:25;15.77;;;5.75;;
75584;SDS011;64162;53.508;10.476;2024-03-08T01:41:53;16.90;;;7.25;;
75584;SDS011;64162;53.508;10.476;2024-03-08T01:44:20;19.58;;;7.22;;
75584;SDS011;64162;53.508;10.476;2024-03-08T01:46:47;14.25;;;6.60;;
75584;SDS011;64162;53.508;10.476;2024-03-08T01:49:15;17.10;;;6.43;;
75584;SDS011;64162;53.508;10.476;2024-03-08T01:51:44;18.23;;;6.72;;
75584;SDS011;64162;53.508;10.476;2024-03-08T01:54:11;16.55;;;6.13;;
75584;SDS011;64162;53.508;10.476;2024-03-08T01:56:39;18.15;;;7.70;;
75584;SDS011;64162;53.508;10.476;2024-03-08T01:59:05;17.48;;;7.55;;
75584;SDS011;64162;53.508;10.476;2024-03-08T02:01:34;17.38;;;7.07;;
75584;SDS011;64162;53.508;10.476;2024-03-08T02:04:00;16.75;;;6.70;;
75584;SDS011;64162;53.508;10.476;2024-03-08T02:06:27;20.52;;;7.90;;
75584;SDS011;64162;53.508;10.476;2024-03-08T02:08:54;17.73;;;7.63;;
75584;SDS011;64162;53.508;10.476;2024-03-08T02:11:20;14.48;;;7.75;;
75584;SDS011;64162;53.508;10.476;2024-03-08T02:13:47;17.45;;;7.78;;
75584;SDS011;64162;53.508;10.476;2024-03-08T02:16:19;17.40;;;7.30;;
75584;SDS011;64162;53.508;10.476;2024-03-08T02:21:13;15.88;;;6.65;;
75584;SDS011;64162;53.508;10.476;2024-03-08T02:23:43;17.77;;;6.10;;
75584;SDS011;64162;53.508;10.476;2024-03-08T02:26:10;19.25;;;7.75;;
75584;SDS011;64162;53.508;10.476;2024-03-08T02:31:03;14.35;;;6.80;;
75584;SDS011;64162;53.508;10.476;2024-03-08T02:33:34;18.27;;;7.32;;
75584;SDS011;64162;53.508;10.476;2024-03-08T02:36:00;16.95;;;6.53;;
75584;SDS011;64162;53.508;10.476;2024-03-08T02:38:27;12.52;;;6.97;;
75584;SDS011;64162;53.508;10.476;2024-03-08T02:40:54;18.33;;;7.20;;
75584;SDS011;64162;53.508;10.476;2024-03-08T02:43:21;17.70;;;7.07;;
75584;SDS011;64162;53.508;10.476;2024-03-08T02:45:48;15.70;;;6.90;;
75584;SDS011;64162;53.508;10.476;2024-03-08T02:48:16;13.60;;;7.00;;
75584;SDS011;64162;53.508;10.476;2024-03-08T02:50:42;12.95;;;6.50;;
75584;SDS011;64162;53.508;10.476;2024-03-08T02:53:10;18.33;;;8.02;;
75584;SDS011;64162;53.508;10.476;2024-03-08T02:55:38;17.38;;;7.05;;
75584;SDS011;64162;53.508;10.476;2024-03-08T02:58:05;19.73;;;7.90;;
75584;SDS011;64162;53.508;10.476;2024-03-08T03:00:35;16.20;;;6.82;;
75584;SDS011;64162;53.508;10.476;2024-03-08T03:03:02;14.85;;;7.47;;
75584;SDS011;64162;53.508;10.476;2024-03-08T03:05:29;15.15;;;7.03;;
75584;SDS011;64162;53.508;10.476;2024-03-08T03:07:56;17.33;;;7.90;;
75584;SDS011;64162;53.508;10.476;2024-03-08T03:10:24;16.98;;;7.40;;
75584;SDS011;64162;53.508;10.476;2024-03-08T03:12:52;19.67;;;8.02;;
75584;SDS011;64162;53.508;10.476;2024-03-08T03:15:19;17.77;;;6.88;;
75584;SDS011;64162;53.508;10.476;2024-03-08T03:17:49;16.73;;;7.20;;
75584;SDS011;64162;53.508;10.476;2024-03-08T03:20:19;18.17;;;8.02;;
75584;SDS011;64162;53.508;10.476;2024-03-08T03:25:19;17.08;;;6.80;;
75584;SDS011;64162;53.508;10.476;2024-03-08T03:27:55;16.13;;;6.63;;
75584;SDS011;64162;53.508;10.476;2024-03-08T03:30:24;17.73;;;6.13;;
75584;SDS011;64162;53.508;10.476;2024-03-08T03:32:52;17.85;;;7.28;;
75584;SDS011;64162;53.508;10.476;2024-03-08T03:35:21;18.70;;;8.32;;
75584;SDS011;64162;53.508;10.476;2024-03-08T03:37:49;17.52;;;6.85;;
75584;SDS011;64162;53.508;10.476;2024-03-08T03:40:32;17.17;;;7.35;;
75584;SDS011;64162;53.508;10.476;2024-03-08T03:43:00;18.45;;;8.23;;
75584;SDS011;64162;53.508;10.476;2024-03-08T03:45:27;17.35;;;7.13;;
75584;SDS011;64162;53.508;10.476;2024-03-08T03:47:54;14.73;;;6.90;;
75584;SDS011;64162;53.508;10.476;2024-03-08T03:52:48;17.52;;;6.55;;
75584;SDS011;64162;53.508;10.476;2024-03-08T03:55:15;13.45;;;5.78;;
75584;SDS011;64162;53.508;10.476;2024-03-08T03:57:41;19.00;;;8.20;;
75584;SDS011;64162;53.508;10.476;2024-03-08T04:00:08;16.75;;;7.93;;
75584;SDS011;64162;53.508;10.476;2024-03-08T04:02:40;19.63;;;7.30;;
75584;SDS011;64162;53.508;10.476;2024-03-08T04:05:07;17.95;;;7.78;;
75584;SDS011;64162;53.508;10.476;2024-03-08T04:07:35;16.73;;;7.60;;
75584;SDS011;64162;53.508;10.476;2024-03-08T04:10:03;17.90;;;7.70;;
75584;SDS011;64162;53.508;10.476;2024-03-08T04:12:33;15.10;;;7.60;;
75584;SDS011;64162;53.508;10.476;2024-03-08T04:14:59;16.80;;;6.88;;
75584;SDS011;64162;53.508;10.476;2024-03-08T04:17:26;17.33;;;7.55;;
75584;SDS011;64162;53.508;10.476;2024-03-08T04:19:53;17.58;;;7.07;;
75584;SDS011;64162;53.508;10.476;2024-03-08T04:22:20;15.98;;;6.82;;
75584;SDS011;64162;53.508;10.476;2024-03-08T04:24:46;20.88;;;8.07;;
75584;SDS011;64162;53.508;10.476;2024-03-08T04:29:40;16.08;;;6.25;;
75584;SDS011;64162;53.508;10.476;2024-03-08T04:32:08;16.58;;;7.45;;
75584;SDS011;64162;53.508;10.476;2024-03-08T04:34:35;15.45;;;6.78;;
75584;SDS011;64162;53.508;10.476;2024-03-08T04:39:28;17.83;;;7.20;;
75584;SDS011;64162;53.508;10.476;2024-03-08T04:41:55;18.30;;;6.97;;
75584;SDS011;64162;53.508;10.476;2024-03-08T04:44:26;17.52;;;7.30;;
75584;SDS011;64162;53.508;10.476;2024-03-08T04:46:52;17.17;;;7.82;;
75584;SDS011;64162;53.508;10.476;2024-03-08T04:49:19;18.27;;;7.05;;
75584;SDS011;64162;53.508;10.476;2024-03-08T04:51:48;18.10;;;7.05;;
75584;SDS011;64162;53.508;10.476;2024-03-08T04:54:14;15.32;;;6.55;;
75584;SDS011;64162;53.508;10.476;2024-03-08T04:56:41;18.20;;;7.20;;
75584;SDS011;64162;53.508;10.476;2024-03-08T04:59:07;17.67;;;7.15;;
75584;SDS011;64162;53.508;10.476;2024-03-08T05:01:34;18.13;;;6.88;;
75584;SDS011;64162;53.508;10.476;2024-03-08T05:04:04;17.55;;;7.40;;
75584;SDS011;64162;53.508;10.476;2024-03-08T05:06:31;20.83;;;7.65;;
75584;SDS011;64162;53.508;10.476;2024-03-08T05:08:59;16.98;;;6.90;;
75584;SDS011;64162;53.508;10.476;2024-03-08T05:11:26;15.43;;;6.97;;
75584;SDS011;64162;53.508;10.476;2024-03-08T05:13:53;17.55;;;8.25;;
75584;SDS011;64162;53.508;10.476;2024-03-08T05:16:20;20.33;;;8.00;;
75584;SDS011;64162;53.508;10.476;2024-03-08T05:18:48;20.45;;;7.32;;
75584;SDS011;64162;53.508;10.476;2024-03-08T05:21:15;18.33;;;7.72;;
75584;SDS011;64162;53.508;10.476;2024-03-08T05:23:43;17.45;;;7.93;;
75584;SDS011;64162;53.508;10.476;2024-03-08T05:26:10;17.27;;;7.60;;
75584;SDS011;64162;53.508;10.476;2024-03-08T05:28:36;18.27;;;7.25;;
75584;SDS011;64162;53.508;10.476;2024-03-08T05:31:03;18.08;;;7.72;;
75584;SDS011;64162;53.508;10.476;2024-03-08T05:33:29;17.90;;;7.07;;
75584;SDS011;64162;53.508;10.476;2024-03-08T05:35:56;20.08;;;7.35;;
75584;SDS011;64162;53.508;10.476;2024-03-08T05:38:22;19.98;;;7.85;;
75584;SDS011;64162;53.508;10.476;2024-03-08T05:40:49;17.63;;;7.32;;
75584;SDS011;64162;53.508;10.476;2024-03-08T05:43:17;20.33;;;9.95;;
75584;SDS011;64162;53.508;10.476;2024-03-08T05:45:46;19.83;;;8.40;;
75584;SDS011;64162;53.508;10.476;2024-03-08T05:48:13;22.02;;;8.75;;
75584;SDS011;64162;53.508;10.476;2024-03-08T05:50:40;17.67;;;7.90;;
75584;SDS011;64162;53.508;10.476;2024-03-08T05:53:06;20.27;;;7.72;;
75584;SDS011;64162;53.508;10.476;2024-03-08T05:55:33;18.85;;;7.40;;
75584;SDS011;64162;53.508;10.476;2024-03-08T05:58:02;16.95;;;6.90;;
75584;SDS011;64162;53.508;10.476;2024-03-08T06:00:29;14.57;;;7.63;;
75584;SDS011;64162;53.508;10.476;2024-03-08T06:02:57;16.55;;;7.28;;
75584;SDS011;64162;53.508;10.476;2024-03-08T06:05:25;17.15;;;7.15;;
75584;SDS011;64162;53.508;10.476;2024-03-08T06:07:51;18.38;;;7.68;;
75584;SDS011;64162;53.508;10.476;2024-03-08T06:10:19;18.00;;;7.63;;
75584;SDS011;64162;53.508;10.476;2024-03-08T06:12:46;20.13;;;7.18;;
75584;SDS011;64162;53.508;10.476;2024-03-08T06:15:12;21.45;;;8.82;;
75584;SDS011;64162;53.508;10.476;2024-03-08T06:17:41;18.98;;;7.70;;
75584;SDS011;64162;53.508;10.476;2024-03-08T06:20:08;17.42;;;7.72;;
75584;SDS011;64162;53.508;10.476;2024-03-08T06:22:39;19.23;;;8.65;;
75584;SDS011;64162;53.508;10.476;2024-03-08T06:25:11;23.95;;;8.35;;
75584;SDS011;64162;53.508;10.476;2024-03-08T06:27:41;18.27;;;8.27;;
75584;SDS011;64162;53.508;10.476;2024-03-08T06:30:13;23.40;;;8.70;;
75584;SDS011;64162;53.508;10.476;2024-03-08T06:32:39;23.08;;;9.57;;
75584;SDS011;64162;53.508;10.476;2024-03-08T06:35:06;20.25;;;8.20;;
75584;SDS011;64162;53.508;10.476;2024-03-08T06:37:33;19.30;;;8.45;;
75584;SDS011;64162;53.508;10.476;2024-03-08T06:40:00;26.95;;;8.55;;
75584;SDS011;64162;53.508;10.476;2024-03-08T06:42:27;20.50;;;9.18;;
75584;SDS011;64162;53.508;10.476;2024-03-08T06:44:54;21.00;;;8.88;;
75584;SDS011;64162;53.508;10.476;2024-03-08T06:47:26;15.95;;;7.55;;
75584;SDS011;64162;53.508;10.476;2024-03-08T06:49:52;22.42;;;8.52;;
75584;SDS011;64162;53.508;10.476;2024-03-08T06:52:19;20.20;;;8.05;;
75584;SDS011;64162;53.508;10.476;2024-03-08T06:54:45;23.55;;;8.65;;
75584;SDS011;64162;53.508;10.476;2024-03-08T06:57:12;16.55;;;7.22;;
75584;SDS011;64162;53.508;10.476;2024-03-08T06:59:40;23.60;;;9.57;;
75584;SDS011;64162;53.508;10.476;2024-03-08T07:02:06;19.15;;;9.45;;
75584;SDS011;64162;53.508;10.476;2024-03-08T07:04:35;24.85;;;9.60;;
75584;SDS011;64162;53.508;10.476;2024-03-08T07:07:04;19.33;;;8.20;;
75584;SDS011;64162;53.508;10.476;2024-03-08T07:09:31;23.02;;;9.18;;
75584;SDS011;64162;53.508;10.476;2024-03-08T07:11:58;22.65;;;10.02;;
75584;SDS011;64162;53.508;10.476;2024-03-08T07:14:25;22.88;;;9.18;;
75584;SDS011;64162;53.508;10.476;2024-03-08T07:16:51;26.50;;;9.50;;
75584;SDS011;64162;53.508;10.476;2024-03-08T07:19:19;16.75;;;7.13;;
75584;SDS011;64162;53.508;10.476;2024-03-08T07:21:45;18.23;;;8.70;;
75584;SDS011;64162;53.508;10.476;2024-03-08T07:24:13;22.92;;;9.07;;
75584;SDS011;64162;53.508;10.476;2024-03-08T07:26:43;22.90;;;9.43;;
75584;SDS011;64162;53.508;10.476;2024-03-08T07:29:10;17.58;;;8.55;;
75584;SDS011;64162;53.508;10.476;2024-03-08T07:31:36;23.85;;;10.48;;
75584;SDS011;64162;53.508;10.476;2024-03-08T07:34:28;17.88;;;8.23;;
75584;SDS011;64162;53.508;10.476;2024-03-08T07:36:58;22.65;;;8.90;;
75584;SDS011;64162;53.508;10.476;2024-03-08T07:39:25;24.77;;;9.18;;
75584;SDS011;64162;53.508;10.476;2024-03-08T07:41:52;24.17;;;9.07;;
75584;SDS011;64162;53.508;10.476;2024-03-08T07:44:19;22.55;;;9.82;;
75584;SDS011;64162;53.508;10.476;2024-03-08T07:46:46;15.10;;;5.75;;
75584;SDS011;64162;53.508;10.476;2024-03-08T07:49:12;19.92;;;8.00;;
75584;SDS011;64162;53.508;10.476;2024-03-08T07:51:40;20.23;;;9.45;;
75584;SDS011;64162;53.508;10.476;2024-03-08T07:54:07;23.27;;;8.95;;
75584;SDS011;64162;53.508;10.476;2024-03-08T07:56:35;21.13;;;9.07;;
75584;SDS011;64162;53.508;10.476;2024-03-08T07:59:03;19.38;;;8.75;;
75584;SDS011;64162;53.508;10.476;2024-03-08T08:01:30;23.70;;;9.48;;
75584;SDS011;64162;53.508;10.476;2024-03-08T08:03:57;23.52;;;9.50;;
75584;SDS011;64162;53.508;10.476;2024-03-08T08:06:23;23.73;;;9.60;;
75584;SDS011;64162;53.508;10.476;2024-03-08T08:08:51;25.40;;;10.18;;
75584;SDS011;64162;53.508;10.476;2024-03-08T08:11:18;24.08;;;10.07;;
75584;SDS011;64162;53.508;10.476;2024-03-08T08:13:44;20.17;;;8.40;;
75584;SDS011;64162;53.508;10.476;2024-03-08T08:16:11;17.73;;;7.93;;
75584;SDS011;64162;53.508;10.476;2024-03-08T08:18:39;18.58;;;7.65;;
75584;SDS011;64162;53.508;10.476;2024-03-08T08:21:07;20.15;;;8.57;;
75584;SDS011;64162;53.508;10.476;2024-03-08T08:23:34;21.20;;;8.38;;
75584;SDS011;64162;53.508;10.476;2024-03-08T08:26:00;14.80;;;6.85;;
75584;SDS011;64162;53.508;10.476;2024-03-08T08:28:29;25.13;;;10.02;;
75584;SDS011;64162;53.508;10.476;2024-03-08T08:30:57;22.45;;;9.43;;
75584;SDS011;64162;53.508;10.476;2024-03-08T08:33:23;22.02;;;9.05;;
75584;SDS011;64162;53.508;10.476;2024-03-08T08:35:51;24.73;;;11.18;;
75584;SDS011;64162;53.508;10.476;2024-03-08T08:38:20;23.35;;;9.30;;
75584;SDS011;64162;53.508;10.476;2024-03-08T08:40:46;24.15;;;9.52;;
75584;SDS011;64162;53.508;10.476;2024-03-08T08:43:13;18.58;;;8.40;;
75584;SDS011;64162;53.508;10.476;2024-03-08T08:45:40;19.25;;;8.20;;
75584;SDS011;64162;53.508;10.476;2024-03-08T08:48:07;18.80;;;7.95;;
75584;SDS011;64162;53.508;10.476;2024-03-08T08:50:33;20.98;;;8.23;;
75584;SDS011;64162;53.508;10.476;2024-03-08T08:53:00;23.63;;;10.63;;
75584;SDS011;64162;53.508;10.476;2024-03-08T08:55:26;20.75;;;8.95;;
75584;SDS011;64162;53.508;10.476;2024-03-08T08:57:53;20.55;;;7.78;;
75584;SDS011;64162;53.508;10.476;2024-03-08T09:00:20;20.85;;;9.50;;
75584;SDS011;64162;53.508;10.476;2024-03-08T09:02:47;26.42;;;9.90;;
75584;SDS011;64162;53.508;10.476;2024-03-08T09:05:17;17.42;;;8.38;;
75584;SDS011;64162;53.508;10.476;2024-03-08T09:10:11;18.65;;;7.25;;
75584;SDS011;64162;53.508;10.476;2024-03-08T09:12:41;16.90;;;7.43;;
75584;SDS011;64162;53.508;10.476;2024-03-08T09:15:08;22.33;;;8.90;;
75584;SDS011;64162;53.508;10.476;2024-03-08T09:17:37;23.13;;;9.57;;
75584;SDS011;64162;53.508;10.476;2024-03-08T09:20:07;18.38;;;9.30;;
75584;SDS011;64162;53.508;10.476;2024-03-08T09:22:35;20.80;;;8.90;;
75584;SDS011;64162;53.508;10.476;2024-03-08T09:25:01;13.63;;;6.45;;
75584;SDS011;64162;53.508;10.476;2024-03-08T09:27:28;18.02;;;8.80;;
75584;SDS011;64162;53.508;10.476;2024-03-08T09:29:56;15.60;;;7.25;;
75584;SDS011;64162;53.508;10.476;2024-03-08T09:32:22;23.98;;;9.40;;
75584;SDS011;64162;53.508;10.476;2024-03-08T09:34:49;21.65;;;10.20;;
75584;SDS011;64162;53.508;10.476;2024-03-08T09:37:16;19.88;;;9.45;;
75584;SDS011;64162;53.508;10.476;2024-03-08T09:39:43;20.35;;;9.27;;
75584;SDS011;64162;53.508;10.476;2024-03-08T09:42:11;19.75;;;8.10;;
75584;SDS011;64162;53.508;10.476;2024-03-08T09:44:44;13.93;;;5.95;;
75584;SDS011;64162;53.508;10.476;2024-03-08T09:47:13;15.20;;;7.45;;
75584;SDS011;64162;53.508;10.476;2024-03-08T09:49:41;21.27;;;8.55;;
75584;SDS011;64162;53.508;10.476;2024-03-08T09:52:07;17.05;;;7.68;;
75584;SDS011;64162;53.508;10.476;2024-03-08T09:54:36;17.25;;;6.60;;
75584;SDS011;64162;53.508;10.476;2024-03-08T09:57:03;13.98;;;7.20;;
75584;SDS011;64162;53.508;10.476;2024-03-08T09:59:30;20.45;;;8.98;;
75584;SDS011;64162;53.508;10.476;2024-03-08T10:02:12;17.90;;;7.35;;
75584;SDS011;64162;53.508;10.476;2024-03-08T10:04:41;18.85;;;8.63;;
75584;SDS011;64162;53.508;10.476;2024-03-08T10:07:08;15.70;;;7.03;;
75584;SDS011;64162;53.508;10.476;2024-03-08T10:09:35;22.98;;;9.27;;
75584;SDS011;64162;53.508;10.476;2024-03-08T10:12:02;22.60;;;9.48;;
75584;SDS011;64162;53.508;10.476;2024-03-08T10:14:31;19.33;;;8.10;;
75584;SDS011;64162;53.508;10.476;2024-03-08T10:16:58;20.73;;;9.00;;
75584;SDS011;64162;53.508;10.476;2024-03-08T10:19:26;17.55;;;7.97;;
75584;SDS011;64162;53.508;10.476;2024-03-08T10:21:56;18.75;;;8.25;;
75584;SDS011;64162;53.508;10.476;2024-03-08T10:24:24;18.67;;;8.32;;
75584;SDS011;64162;53.508;10.476;2024-03-08T10:26:52;17.20;;;8.57;;
75584;SDS011;64162;53.508;10.476;2024-03-08T10:29:20;14.45;;;7.20;;
75584;SDS011;64162;53.508;10.476;2024-03-08T10:31:46;21.10;;;8.88;;
75584;SDS011;64162;53.508;10.476;2024-03-08T10:34:13;13.75;;;6.20;;
75584;SDS011;64162;53.508;10.476;2024-03-08T10:36:40;20.70;;;8.88;;
75584;SDS011;64162;53.508;10.476;2024-03-08T10:39:10;19.17;;;9.13;;
75584;SDS011;64162;53.508;10.476;2024-03-08T10:41:49;13.45;;;6.03;;
75584;SDS011;64162;53.508;10.476;2024-03-08T10:44:25;13.93;;;6.78;;
75584;SDS011;64162;53.508;10.476;2024-03-08T10:47:14;21.15;;;8.98;;
75584;SDS011;64162;53.508;10.476;2024-03-08T10:50:01;20.67;;;9.38;;
75584;SDS011;64162;53.508;10.476;2024-03-08T10:52:30;11.10;;;6.13;;
75584;SDS011;64162;53.508;10.476;2024-03-08T10:54:57;15.63;;;6.70;;
75584;SDS011;64162;53.508;10.476;2024-03-08T10:57:25;19.08;;;8.38;;
75584;SDS011;64162;53.508;10.476;2024-03-08T10:59:53;12.90;;;6.65;;
75584;SDS011;64162;53.508;10.476;2024-03-08T11:02:22;19.95;;;8.05;;
75584;SDS011;64162;53.508;10.476;2024-03-08T11:07:17;13.13;;;6.07;;
75584;SDS011;64162;53.508;10.476;2024-03-08T11:09:47;13.40;;;6.03;;
75584;SDS011;64162;53.508;10.476;2024-03-08T11:12:18;12.75;;;5.60;;
75584;SDS011;64162;53.508;10.476;2024-03-08T11:14:59;13.32;;;6.20;;
75584;SDS011;64162;53.508;10.476;2024-03-08T11:20:12;14.27;;;7.15;;
75584;SDS011;64162;53.508;10.476;2024-03-08T11:22:50;10.07;;;5.43;;
75584;SDS011;64162;53.508;10.476;2024-03-08T11:25:37;13.70;;;5.82;;
75584;SDS011;64162;53.508;10.476;2024-03-08T11:28:11;13.02;;;6.47;;
75584;SDS011;64162;53.508;10.476;2024-03-08T11:30:47;13.85;;;7.35;;
75584;SDS011;64162;53.508;10.476;2024-03-08T11:33:30;10.77;;;5.82;;
75584;SDS011;64162;53.508;10.476;2024-03-08T11:36:13;15.27;;;6.18;;
75584;SDS011;64162;53.508;10.476;2024-03-08T11:38:48;17.15;;;8.02;;
75584;SDS011;64162;53.508;10.476;2024-03-08T11:41:19;14.50;;;5.78;;
75584;SDS011;64162;53.508;10.476;2024-03-08T11:43:47;11.23;;;5.00;;
75584;SDS011;64162;53.508;10.476;2024-03-08T11:46:15;9.15;;;4.68;;
75584;SDS011;64162;53.508;10.476;2024-03-08T11:48:43;17.40;;;7.50;;
75584;SDS011;64162;53.508;10.476;2024-03-08T11:51:11;16.75;;;6.82;;
75584;SDS011;64162;53.508;10.476;2024-03-08T11:53:38;15.70;;;7.00;;
75584;SDS011;64162;53.508;10.476;2024-03-08T11:56:08;15.63;;;7.13;;
75584;SDS011;64162;53.508;10.476;2024-03-08T11:58:36;17.50;;;7.00;;
75584;SDS011;64162;53.508;10.476;2024-03-08T12:01:06;16.63;;;7.13;;
75584;SDS011;64162;53.508;10.476;2024-03-08T12:03:38;17.95;;;7.65;;
75584;SDS011;64162;53.508;10.476;2024-03-08T12:06:06;15.90;;;7.57;;
75584;SDS011;64162;53.508;10.476;2024-03-08T12:08:35;13.30;;;6.93;;
75584;SDS011;64162;53.508;10.476;2024-03-08T12:11:05;10.77;;;5.85;;
75584;SDS011;64162;53.508;10.476;2024-03-08T12:13:32;15.18;;;6.72;;
75584;SDS011;64162;53.508;10.476;2024-03-08T12:16:00;13.07;;;5.82;;
75584;SDS011;64162;53.508;10.476;2024-03-08T12:18:33;15.20;;;6.38;;
75584;SDS011;64162;53.508;10.476;2024-03-08T12:23:35;12.40;;;6.00;;
75584;SDS011;64162;53.508;10.476;2024-03-08T12:28:42;11.65;;;5.53;;
75584;SDS011;64162;53.508;10.476;2024-03-08T12:31:11;11.40;;;5.88;;
75584;SDS011;64162;53.508;10.476;2024-03-08T12:33:51;14.15;;;6.25;;
75584;SDS011;64162;53.508;10.476;2024-03-08T12:36:25;12.82;;;6.18;;
75584;SDS011;64162;53.508;10.476;2024-03-08T12:41:21;9.43;;;5.53;;
75584;SDS011;64162;53.508;10.476;2024-03-08T12:46:20;9.25;;;4.88;;
75584;SDS011;64162;53.508;10.476;2024-03-08T12:48:48;15.50;;;6.68;;
75584;SDS011;64162;53.508;10.476;2024-03-08T12:51:15;12.35;;;5.75;;
75584;SDS011;64162;53.508;10.476;2024-03-08T12:53:44;13.40;;;6.63;;
75584;SDS011;64162;53.508;10.476;2024-03-08T12:56:12;13.15;;;6.60;;
75584;SDS011;64162;53.508;10.476;2024-03-08T12:58:39;11.07;;;5.88;;
75584;SDS011;64162;53.508;10.476;2024-03-08T13:01:07;12.40;;;6.57;;
75584;SDS011;64162;53.508;10.476;2024-03-08T13:03:36;13.27;;;6.20;;
75584;SDS011;64162;53.508;10.476;2024-03-08T13:06:03;15.07;;;7.20;;
75584;SDS011;64162;53.508;10.476;2024-03-08T13:08:37;14.32;;;6.55;;
75584;SDS011;64162;53.508;10.476;2024-03-08T13:11:07;15.10;;;7.10;;
75584;SDS011;64162;53.508;10.476;2024-03-08T13:13:37;15.73;;;7.35;;
75584;SDS011;64162;53.508;10.476;2024-03-08T13:16:06;15.35;;;5.47;;
75584;SDS011;64162;53.508;10.476;2024-03-08T13:18:36;11.57;;;5.63;;
75584;SDS011;64162;53.508;10.476;2024-03-08T13:21:03;17.92;;;7.22;;
75584;SDS011;64162;53.508;10.476;2024-03-08T13:23:36;16.20;;;7.63;;
75584;SDS011;64162;53.508;10.476;2024-03-08T13:28:33;10.70;;;5.63;;
75584;SDS011;64162;53.508;10.476;2024-03-08T13:31:06;14.00;;;6.18;;
75584;SDS011;64162;53.508;10.476;2024-03-08T13:33:33;15.70;;;6.47;;
75584;SDS011;64162;53.508;10.476;2024-03-08T13:36:03;18.63;;;7.03;;
75584;SDS011;64162;53.508;10.476;2024-03-08T13:38:33;9.30;;;4.80;;
75584;SDS011;64162;53.508;10.476;2024-03-08T13:41:00;11.27;;;6.53;;
75584;SDS011;64162;53.508;10.476;2024-03-08T13:43:27;11.20;;;5.53;;
75584;SDS011;64162;53.508;10.476;2024-03-08T13:45:55;14.35;;;6.80;;
75584;SDS011;64162;53.508;10.476;2024-03-08T13:48:21;15.75;;;6.97;;
75584;SDS011;64162;53.508;10.476;2024-03-08T13:50:49;17.08;;;7.38;;
75584;SDS011;64162;53.508;10.476;2024-03-08T13:53:18;9.82;;;5.32;;
75584;SDS011;64162;53.508;10.476;2024-03-08T13:58:11;7.68;;;4.15;;
75584;SDS011;64162;53.508;10.476;2024-03-08T14:00:40;14.82;;;7.18;;
75584;SDS011;64162;53.508;10.476;2024-03-08T14:03:10;11.65;;;6.00;;
75584;SDS011;64162;53.508;10.476;2024-03-08T14:05:39;14.23;;;5.70;;
75584;SDS011;64162;53.508;10.476;2024-03-08T14:08:08;12.52;;;6.95;;
75584;SDS011;64162;53.508;10.476;2024-03-08T14:10:36;13.45;;;6.28;;
75584;SDS011;64162;53.508;10.476;2024-03-08T14:13:05;11.38;;;5.72;;
75584;SDS011;64162;53.508;10.476;2024-03-08T14:15:33;12.88;;;6.03;;
75584;SDS011;64162;53.508;10.476;2024-03-08T14:18:07;12.05;;;5.53;;
75584;SDS011;64162;53.508;10.476;2024-03-08T14:20:34;16.80;;;5.97;;
75584;SDS011;64162;53.508;10.476;2024-03-08T14:23:01;11.90;;;5.22;;
75584;SDS011;64162;53.508;10.476;2024-03-08T14:25:28;11.57;;;5.70;;
75584;SDS011;64162;53.508;10.476;2024-03-08T14:27:56;11.07;;;5.65;;
75584;SDS011;64162;53.508;10.476;2024-03-08T14:30:24;14.05;;;6.10;;
75584;SDS011;64162;53.508;10.476;2024-03-08T14:33:07;11.23;;;5.75;;
75584;SDS011;64162;53.508;10.476;2024-03-08T14:35:37;12.70;;;5.75;;
75584;SDS011;64162;53.508;10.476;2024-03-08T14:38:05;9.98;;;5.65;;
75584;SDS011;64162;53.508;10.476;2024-03-08T14:40:34;13.48;;;6.20;;
75584;SDS011;64162;53.508;10.476;2024-03-08T14:43:02;14.00;;;5.55;;
75584;SDS011;64162;53.508;10.476;2024-03-08T14:45:31;8.85;;;4.88;;
75584;SDS011;64162;53.508;10.476;2024-03-08T14:50:27;10.70;;;5.13;;
75584;SDS011;64162;53.508;10.476;2024-03-08T14:55:20;7.00;;;4.57;;
75584;SDS011;64162;53.508;10.476;2024-03-08T14:57:51;12.25;;;5.43;;
75584;SDS011;64162;53.508;10.476;2024-03-08T15:00:19;11.98;;;5.90;;
75584;SDS011;64162;53.508;10.476;2024-03-08T15:02:53;12.23;;;5.75;;
75584;SDS011;64162;53.508;10.476;2024-03-08T15:05:21;12.27;;;6.32;;
75584;SDS011;64162;53.508;10.476;2024-03-08T15:07:53;15.10;;;6.20;;
75584;SDS011;64162;53.508;10.476;2024-03-08T15:10:20;11.43;;;4.72;;
75584;SDS011;64162;53.508;10.476;2024-03-08T15:12:50;12.82;;;6.90;;
75584;SDS011;64162;53.508;10.476;2024-03-08T15:15:22;15.27;;;6.53;;
75584;SDS011;64162;53.508;10.476;2024-03-08T15:17:50;17.55;;;6.30;;